< < Back
Terminal Aerodrome Forecast


Current Version              Previous Versions:   1  2  3  4  5  6  7  8  9  

Terminal Aerodrome Forecast

190
FTUS42 KTAE 260534
TAFABY
TAF
KABY 260534Z 2606/2706 23004KT P6SM FEW007
     FM260900 23006KT 5SM BR SCT007
     FM261200 27008KT P6SM SCT015
     FM261600 27010G15KT P6SM SCT040=



Latest METAR

476
SAUS70 KWBC 261300 RRF
MTRABY
METAR KABY 261253Z 27006KT 10SM CLR 21/19 A2977 RMK AO2 SLP079
T02060189


USA.gov is the U.S. government's official web portal to all federal, state and local government web resources and services.